Aviation Digital Data Service (ADDS)

Output produced by METARs form (0634 UTC 19 February 2019)
found at http://www.aviationweather.gov/metar/data/
 
Forecast for: DNJO (JOS , NG)
Text: TAF DNJO 182130Z 1900/2006 08011KT 6000 NSC
Forecast period: 0000 UTC 19 February 2019 to 0600 UTC 20 February 2019
Forecast type: FROM: standard forecast or significant change
Winds: from the E (80 degrees) at 13 MPH (11 knots; 5.7 m/s)
Visibility: 4 miles (6 km)
Ceiling: unknown
Clouds: missing
Weather: no significant weather forecast for this period
Text: PROB30
Forecast period: 0300 to 0900 UTC 19 February 2019
Forecast type: TEMPORARY: The following changes expected for less than half the time period
Visibility: 2.49 miles (4.01 km)
Ceiling: unknown
Clouds: missing
Weather: HZ  (haze)